Time;durP1;ratioP1;P1;durP2;ratioP2;P2;SDS_P1;SDS_P2;PMS_P1;PMS_P2;Temp;Humidity;BMP_temperature;BMP_pressure;BME280_temperature;BME280_humidity;BME280_pressure;Samples;Min_cycle;Max_cycle;Signal;HPM_P1;HPM_P2
2023/06/12 00:00:52;;;;;;;8.23;6.95;;;;;;;24.33;37.37;101384.06;5070266;28;20077;-65
2023/06/12 00:03:24;;;;;;;10.05;6.78;;;;;;;24.32;37.84;101390.06;5067713;28;20044;-64
2023/06/12 00:05:50;;;;;;;10.98;6.88;;;;;;;24.30;38.19;101390.41;5070167;28;20518;-64
2023/06/12 00:08:17;;;;;;;11.30;7.22;;;;;;;24.20;38.41;101388.72;5069819;28;20040;-64
2023/06/12 00:10:44;;;;;;;8.57;6.97;;;;;;;24.14;38.70;101381.53;5072325;28;20055;-64
2023/06/12 00:13:11;;;;;;;9.35;6.70;;;;;;;24.18;38.54;101382.53;5068616;28;20183;-64
2023/06/12 00:15:36;;;;;;;9.05;6.90;;;;;;;24.14;38.98;101380.72;5072585;28;20510;-64
2023/06/12 00:18:02;;;;;;;8.52;6.82;;;;;;;24.15;38.53;101388.06;5070568;28;20025;-64
2023/06/12 00:20:28;;;;;;;12.07;6.75;;;;;;;24.06;38.83;101390.06;5063550;28;20472;-65
2023/06/12 00:22:53;;;;;;;7.53;6.85;;;;;;;24.02;38.85;101380.53;5066864;28;20601;-64
2023/06/12 00:25:20;;;;;;;10.35;6.85;;;;;;;23.96;38.84;101388.34;5079733;28;20039;-65
2023/06/12 00:27:46;;;;;;;10.52;6.50;;;;;;;23.96;38.94;101391.19;5082422;28;20019;-64
2023/06/12 00:30:12;;;;;;;8.70;6.95;;;;;;;23.89;38.37;101391.66;5074706;28;20413;-64
2023/06/12 00:32:37;;;;;;;8.43;7.18;;;;;;;23.85;38.83;101378.47;5082245;28;20495;-64
2023/06/12 00:35:03;;;;;;;9.40;6.60;;;;;;;23.74;38.19;101389.31;5064653;28;20033;-64
2023/06/12 00:37:29;;;;;;;8.55;7.28;;;;;;;23.80;38.48;101390.00;5059575;28;20051;-64
2023/06/12 00:39:54;;;;;;;9.10;6.75;;;;;;;23.77;38.71;101380.97;5075069;28;20048;-64
2023/06/12 00:42:20;;;;;;;9.40;6.80;;;;;;;23.73;38.12;101379.97;5081033;28;20152;-64
2023/06/12 00:44:46;;;;;;;8.25;7.35;;;;;;;23.72;38.57;101378.28;5079320;28;20123;-64
2023/06/12 00:47:13;;;;;;;10.35;7.22;;;;;;;23.73;38.50;101382.78;5068474;28;20380;-64
2023/06/12 00:49:38;;;;;;;9.32;6.70;;;;;;;23.70;38.65;101382.66;5067113;28;20090;-64
2023/06/12 00:52:04;;;;;;;7.93;7.03;;;;;;;23.65;39.30;101383.56;5067182;28;20476;-65
2023/06/12 00:54:30;;;;;;;7.82;7.05;;;;;;;23.65;39.28;101382.75;5063330;28;20934;-64
2023/06/12 00:56:56;;;;;;;7.30;6.60;;;;;;;23.59;39.60;101378.41;5078777;28;20666;-65
2023/06/12 00:59:23;;;;;;;8.25;6.85;;;;;;;23.49;39.67;101376.69;5087619;28;20039;-64
2023/06/12 01:01:48;;;;;;;10.38;6.97;;;;;;;23.44;39.74;101379.69;5074298;28;20020;-65
2023/06/12 01:04:14;;;;;;;8.98;7.50;;;;;;;23.43;39.65;101380.84;5072511;28;20097;-65
2023/06/12 01:06:47;;;;;;;9.52;6.90;;;;;;;23.40;39.69;101373.00;5080230;28;20134;-65
2023/06/12 01:09:39;;;;;;;7.57;6.82;;;;;;;23.43;39.00;101384.50;5079278;28;20032;-64
2023/06/12 01:12:07;;;;;;;7.43;6.50;;;;;;;23.31;39.74;101380.63;5067002;28;20082;-64
2023/06/12 01:14:33;;;;;;;8.77;7.50;;;;;;;23.26;39.72;101390.09;5067095;28;20045;-64
2023/06/12 01:17:02;;;;;;;7.38;6.68;;;;;;;23.21;40.10;101384.56;5075407;28;20017;-64
2023/06/12 01:19:27;;;;;;;9.25;6.70;;;;;;;23.16;40.26;101391.22;5067037;28;20036;-64
2023/06/12 01:21:59;;;;;;;7.85;6.97;;;;;;;23.14;40.44;101381.38;5075898;28;20382;-64
2023/06/12 01:24:34;;;;;;;9.25;7.20;;;;;;;23.17;40.23;101386.38;5079741;28;20123;-65
2023/06/12 01:27:11;;;;;;;10.63;6.97;;;;;;;23.02;40.65;101379.97;5067470;28;20124;-65
2023/06/12 01:29:58;;;;;;;9.85;7.25;;;;;;;23.09;40.08;101390.84;5058441;28;20036;-64
2023/06/12 01:32:24;;;;;;;8.05;7.25;;;;;;;23.03;40.64;101387.34;5082084;28;20028;-64
2023/06/12 01:35:02;;;;;;;9.27;7.22;;;;;;;22.96;40.74;101388.94;5085559;28;20079;-64
2023/06/12 01:37:54;;;;;;;9.07;7.03;;;;;;;22.94;40.60;101383.59;5080398;28;20024;-65
2023/06/12 01:40:21;;;;;;;;;;;;;;;23.21;39.42;101382.56;5088122;28;20036;-64
2023/06/12 01:42:46;;;;;;;8.52;7.63;;;;;;;22.95;40.33;101384.44;5068457;28;19916;-65
2023/06/12 01:45:12;;;;;;;9.02;7.32;;;;;;;22.88;40.72;101384.03;5065481;28;20035;-64
2023/06/12 01:47:37;;;;;;;9.52;7.90;;;;;;;22.83;40.79;101389.81;5066801;28;20337;-65
2023/06/12 01:50:04;;;;;;;10.30;7.60;;;;;;;22.66;41.26;101384.88;5087797;28;20441;-64
2023/06/12 01:52:29;;;;;;;8.88;7.97;;;;;;;22.73;40.80;101377.63;5068604;28;20028;-64
2023/06/12 01:54:58;;;;;;;8.68;7.75;;;;;;;22.67;40.87;101384.53;5088643;28;20054;-64
2023/06/12 01:57:23;;;;;;;10.63;7.93;;;;;;;22.67;41.13;101383.72;5088137;28;20028;-64
2023/06/12 01:59:49;;;;;;;10.57;7.50;;;;;;;22.66;41.11;101396.19;5067453;28;20025;-65
2023/06/12 02:02:15;;;;;;;11.43;8.07;;;;;;;22.61;41.56;101390.69;5062585;28;20032;-65
2023/06/12 02:04:41;;;;;;;13.32;8.00;;;;;;;22.55;41.56;101387.13;5067495;28;20051;-65
2023/06/12 02:07:06;;;;;;;13.23;7.30;;;;;;;22.53;41.63;101389.47;5076328;28;20032;-65
2023/06/12 02:09:31;;;;;;;10.57;8.40;;;;;;;22.56;41.63;101394.47;5087854;28;20028;-63
2023/06/12 02:11:57;;;;;;;15.68;8.90;;;;;;;22.52;41.74;101385.78;5088597;28;20036;-63
2023/06/12 02:14:23;;;;;;;12.15;9.02;;;;;;;22.39;41.58;101389.50;5069997;28;20047;-63
2023/06/12 02:16:53;;;;;;;12.05;9.07;;;;;;;22.41;41.30;101383.53;5070461;28;20025;-63
2023/06/12 02:19:21;;;;;;;9.85;8.75;;;;;;;22.39;41.40;101383.00;5064846;28;20047;-63
2023/06/12 02:21:47;;;;;;;12.80;8.57;;;;;;;22.34;41.52;101383.13;5070267;28;20563;-63
2023/06/12 02:24:12;;;;;;;13.20;8.60;;;;;;;22.35;41.52;101381.97;5070192;28;20082;-64
2023/06/12 02:26:37;;;;;;;12.15;8.20;;;;;;;22.27;41.02;101392.88;5082657;28;20032;-64
2023/06/12 02:29:12;;;;;;;12.95;8.93;;;;;;;22.21;41.78;101382.88;5060711;28;20419;-64
2023/06/12 02:31:37;;;;;;;10.82;8.63;;;;;;;22.18;41.86;101377.84;5049234;28;20024;-63
2023/06/12 02:34:02;;;;;;;12.38;9.02;;;;;;;22.15;42.10;101381.31;5073196;28;20106;-64
2023/06/12 02:36:29;;;;;;;10.30;8.15;;;;;;;22.13;42.22;101383.63;5088668;28;20028;-64
2023/06/12 02:38:55;;;;;;;10.80;8.10;;;;;;;22.16;42.25;101376.47;5094377;28;20066;-64
2023/06/12 02:41:21;;;;;;;11.77;8.63;;;;;;;22.10;42.40;101378.56;5093472;28;20028;-64
2023/06/12 02:43:46;;;;;;;11.18;8.55;;;;;;;22.06;42.38;101377.53;5075844;28;20029;-64
2023/06/12 02:46:12;;;;;;;10.60;8.50;;;;;;;22.00;42.84;101375.97;5060472;28;20028;-64
2023/06/12 02:48:37;;;;;;;12.07;8.98;;;;;;;21.96;42.81;101384.25;5053313;28;20036;-65
2023/06/12 02:51:02;;;;;;;19.05;9.10;;;;;;;21.94;42.84;101380.91;5060820;28;20090;-65
2023/06/12 02:53:28;;;;;;;18.90;10.30;;;;;;;21.92;42.65;101379.56;5073301;28;20028;-66
2023/06/12 02:55:53;;;;;;;16.35;8.85;;;;;;;21.88;42.78;101373.69;5073789;28;20175;-65
2023/06/12 02:58:19;;;;;;;15.60;9.65;;;;;;;21.83;42.83;101375.81;5074444;28;20064;-65
2023/06/12 03:00:44;;;;;;;16.38;9.75;;;;;;;21.79;42.95;101384.91;5085088;28;20063;-65
2023/06/12 03:03:09;;;;;;;18.02;9.52;;;;;;;21.77;43.08;101373.09;5071358;28;20529;-66
2023/06/12 03:05:36;;;;;;;16.33;9.93;;;;;;;21.78;42.98;101376.75;5091576;28;20036;-67
2023/06/12 03:08:04;;;;;;;17.45;9.20;;;;;;;21.76;43.31;101370.56;5091980;28;20039;-66
2023/06/12 03:10:29;;;;;;;17.30;9.75;;;;;;;21.69;43.32;101381.47;5082578;28;20058;-65
2023/06/12 03:12:55;;;;;;;14.38;9.93;;;;;;;21.63;43.06;101372.28;5075237;28;20025;-66
2023/06/12 03:15:21;;;;;;;12.10;9.20;;;;;;;21.59;43.32;101376.88;5072347;28;20045;-65
2023/06/12 03:17:47;;;;;;;15.50;10.52;;;;;;;21.53;43.38;101373.31;5090739;28;20028;-66
2023/06/12 03:20:14;;;;;;;18.40;9.45;;;;;;;21.49;43.83;101380.75;5072452;28;20438;-65
2023/06/12 03:22:40;;;;;;;12.65;9.15;;;;;;;21.53;43.73;101383.78;5091550;28;20033;-67
2023/06/12 03:25:05;;;;;;;16.58;9.52;;;;;;;21.44;43.86;101380.84;5092792;28;20391;-65
2023/06/12 03:27:31;;;;;;;11.07;9.38;;;;;;;21.47;44.06;101379.41;5087784;28;20035;-65
2023/06/12 03:29:56;;;;;;;14.32;9.68;;;;;;;21.45;43.97;101381.69;5077649;28;20472;-66
2023/06/12 03:32:22;;;;;;;13.50;9.85;;;;;;;21.43;44.27;101395.31;5081853;28;20063;-65
2023/06/12 03:34:47;;;;;;;14.80;10.23;;;;;;;21.44;44.18;101391.31;5090118;28;20430;-65
2023/06/12 03:37:13;;;;;;;20.75;9.75;;;;;;;21.34;44.23;101395.19;5078032;28;20050;-65
2023/06/12 03:39:38;;;;;;;17.08;11.10;;;;;;;21.28;44.40;101387.94;5092380;28;20491;-65
2023/06/12 03:42:04;;;;;;;20.92;10.52;;;;;;;21.35;44.41;101393.22;5082161;28;20036;-65
2023/06/12 03:44:30;;;;;;;21.65;11.05;;;;;;;21.32;44.44;101395.50;5091753;28;20131;-65
2023/06/12 03:46:55;;;;;;;14.68;10.90;;;;;;;21.23;44.84;101397.34;5087507;28;20534;-64
2023/06/12 03:49:21;;;;;;;19.05;11.48;;;;;;;21.27;44.56;101395.56;5084333;28;20032;-65
2023/06/12 03:51:46;;;;;;;20.55;11.27;;;;;;;21.22;44.63;101390.03;5068173;28;20025;-65
2023/06/12 03:54:12;;;;;;;18.27;11.13;;;;;;;21.22;44.59;101394.81;5071412;28;20074;-65
2023/06/12 03:56:37;;;;;;;19.25;11.73;;;;;;;21.13;44.75;101391.88;5074731;28;20094;-65
2023/06/12 03:59:02;;;;;;;19.48;11.35;;;;;;;21.20;44.53;101397.13;5090175;28;20082;-64
2023/06/12 04:01:28;;;;;;;13.60;10.80;;;;;;;21.19;44.79;101401.09;5079769;28;20119;-65
2023/06/12 04:03:53;;;;;;;15.18;10.68;;;;;;;21.09;44.77;101396.47;5077889;28;20037;-65
2023/06/12 04:06:22;;;;;;;17.00;10.90;;;;;;;21.22;44.57;101403.28;5070989;28;20367;-64
2023/06/12 04:08:47;;;;;;;12.68;10.63;;;;;;;21.12;44.62;101407.16;5071414;28;20123;-65
2023/06/12 04:11:14;;;;;;;14.45;11.35;;;;;;;21.15;44.52;101411.34;5072835;28;20039;-65
2023/06/12 04:13:40;;;;;;;12.07;10.43;;;;;;;21.04;45.05;101413.50;5078513;28;20475;-64
2023/06/12 04:16:07;;;;;;;12.40;10.15;;;;;;;21.08;44.85;101412.56;5074102;28;20086;-65
2023/06/12 04:18:33;;;;;;;12.20;10.20;;;;;;;21.10;45.21;101423.53;5090479;28;20020;-65
2023/06/12 04:21:00;;;;;;;11.57;10.38;;;;;;;21.11;45.00;101421.59;5078366;28;20107;-65
2023/06/12 04:23:29;;;;;;;12.50;10.98;;;;;;;21.05;45.26;101426.47;5070158;28;20032;-65
2023/06/12 04:26:01;;;;;;;15.98;10.82;;;;;;;21.13;45.27;101422.94;5071722;28;20489;-65
2023/06/12 04:28:28;;;;;;;14.90;10.77;;;;;;;21.14;45.28;101421.78;5090321;28;20051;-65
2023/06/12 04:30:54;;;;;;;12.90;10.65;;;;;;;21.11;45.69;101430.88;5077020;28;20025;-65
2023/06/12 04:33:20;;;;;;;14.68;10.75;;;;;;;21.07;45.75;101424.19;5066552;28;20133;-64
2023/06/12 04:35:46;;;;;;;14.10;11.70;;;;;;;21.10;45.85;101423.53;5080074;28;20036;-65
2023/06/12 04:38:11;;;;;;;12.60;11.30;;;;;;;21.15;45.84;101422.63;5071225;28;20054;-65
2023/06/12 04:40:37;;;;;;;12.55;10.65;;;;;;;21.05;46.02;101413.19;5067694;28;20033;-64
2023/06/12 04:43:06;;;;;;;13.15;10.90;;;;;;;21.16;45.83;101416.66;5069904;28;20043;-65
2023/06/12 04:45:36;;;;;;;11.80;10.35;;;;;;;21.15;45.75;101415.00;5071817;28;20033;-64
2023/06/12 04:48:02;;;;;;;14.68;10.30;;;;;;;21.22;45.60;101417.41;5061573;28;20158;-64
2023/06/12 04:50:27;;;;;;;14.15;11.02;;;;;;;21.19;45.34;101418.88;5063269;28;20535;-65
2023/06/12 04:52:52;;;;;;;14.90;11.13;;;;;;;21.17;45.30;101421.16;5089226;28;20049;-65
2023/06/12 04:55:22;;;;;;;12.85;10.98;;;;;;;21.27;45.71;101420.97;5091385;28;20055;-66
2023/06/12 04:57:52;;;;;;;19.50;11.65;;;;;;;21.28;45.72;101421.81;5075270;28;20472;-65
2023/06/12 05:00:18;;;;;;;14.02;12.00;;;;;;;21.38;44.15;101424.50;5079485;28;20032;-65
2023/06/12 05:02:44;;;;;;;13.73;11.85;;;;;;;21.35;44.67;101429.91;5064234;28;20029;-65
2023/06/12 05:05:10;;;;;;;16.35;11.98;;;;;;;21.36;44.66;101426.78;5089029;28;20104;-65
2023/06/12 05:07:35;;;;;;;17.20;12.80;;;;;;;21.43;44.63;101434.84;5087612;28;20398;-65
2023/06/12 05:10:01;;;;;;;19.95;12.63;;;;;;;21.44;44.25;101428.03;5091749;28;20054;-65
2023/06/12 05:12:26;;;;;;;16.30;13.23;;;;;;;21.45;44.39;101435.34;5078618;28;20028;-64
2023/06/12 05:14:52;;;;;;;17.73;12.68;;;;;;;21.62;44.31;101431.94;5051934;28;20086;-65
2023/06/12 05:17:17;;;;;;;14.57;12.98;;;;;;;21.63;44.24;101428.78;5084010;28;20028;-65
2023/06/12 05:19:43;;;;;;;14.52;12.98;;;;;;;21.73;44.18;101430.53;5074546;28;20062;-65
2023/06/12 05:22:08;;;;;;;15.15;13.02;;;;;;;21.73;44.04;101431.41;5070182;28;20111;-65
2023/06/12 05:24:34;;;;;;;15.27;12.70;;;;;;;21.81;44.82;101429.78;5056762;28;20039;-65
2023/06/12 05:27:00;;;;;;;14.85;13.02;;;;;;;21.83;44.17;101433.16;5073502;28;20020;-64
2023/06/12 05:29:26;;;;;;;16.88;13.32;;;;;;;21.88;44.04;101432.22;5086852;28;20032;-65
2023/06/12 05:31:51;;;;;;;15.10;13.60;;;;;;;21.91;44.85;101432.41;5080264;28;20020;-65
2023/06/12 05:34:17;;;;;;;15.63;13.02;;;;;;;21.96;44.59;101426.66;5072468;28;20131;-65
2023/06/12 05:36:42;;;;;;;14.73;13.13;;;;;;;22.04;43.89;101425.06;5080957;28;21218;-65
2023/06/12 05:39:08;;;;;;;17.13;13.70;;;;;;;22.09;43.77;101422.16;5075657;28;20020;-65
2023/06/12 05:41:34;;;;;;;14.02;12.52;;;;;;;22.18;43.07;101422.25;5067158;28;20028;-65
2023/06/12 05:43:59;;;;;;;16.13;14.38;;;;;;;22.14;42.80;101424.88;5068068;28;20076;-65
2023/06/12 05:46:25;;;;;;;14.38;12.45;;;;;;;22.16;42.63;101419.72;5068788;28;20480;-65
2023/06/12 05:48:50;;;;;;;13.85;12.30;;;;;;;22.24;42.64;101423.78;5071105;28;20016;-65
2023/06/12 05:51:16;;;;;;;13.10;11.55;;;;;;;22.35;42.24;101421.56;5081985;28;20103;-66
2023/06/12 05:53:44;;;;;;;17.58;12.10;;;;;;;22.37;41.86;101411.63;5075488;28;20036;-64
2023/06/12 05:56:12;;;;;;;15.07;12.45;;;;;;;22.36;42.12;101420.41;5062137;28;20940;-67
2023/06/12 05:58:38;;;;;;;14.60;12.18;;;;;;;22.38;41.80;101420.94;5069148;28;20028;-66
2023/06/12 06:01:03;;;;;;;12.70;11.38;;;;;;;22.43;42.00;101418.81;5076562;28;20031;-65
2023/06/12 06:03:32;;;;;;;9.00;6.55;;;;;;;22.62;47.53;101414.97;5071300;28;20028;-65
2023/06/12 06:05:58;;;;;;;15.88;11.63;;;;;;;22.62;42.08;101409.31;5075407;28;20387;-65
2023/06/12 06:08:23;;;;;;;14.68;10.55;;;;;;;22.75;42.11;101414.94;5073359;28;20115;-64
2023/06/12 06:10:49;;;;;;;9.93;8.20;;;;;;;22.88;45.70;101415.19;5077657;28;20033;-66
2023/06/12 06:13:14;;;;;;;13.63;9.00;;;;;;;22.98;45.67;101423.41;5068512;28;20132;-65
2023/06/12 06:15:39;;;;;;;12.00;7.57;;;;;;;23.05;46.20;101420.97;5069019;28;20108;-64
2023/06/12 06:18:06;;;;;;;8.95;6.95;;;;;;;23.11;44.21;101419.69;5071704;28;20404;-65
2023/06/12 06:20:31;;;;;;;9.25;6.88;;;;;;;23.17;46.25;101421.22;5065797;28;20017;-64
2023/06/12 06:22:57;;;;;;;9.10;7.90;;;;;;;23.19;45.12;101426.56;5089829;28;20036;-64
2023/06/12 06:25:48;;;;;;;12.82;9.82;;;;;;;23.16;43.09;101425.22;5055109;28;20159;-64
2023/06/12 06:28:14;;;;;;;10.20;7.57;;;;;;;23.31;44.67;101426.78;5062063;28;20044;-61
2023/06/12 06:30:40;;;;;;;8.98;6.40;;;;;;;23.42;44.17;101427.31;5079432;28;20036;-64
2023/06/12 06:33:05;;;;;;;10.00;8.05;;;;;;;23.48;42.74;101432.53;5085614;28;20028;-64
2023/06/12 06:35:30;;;;;;;12.10;9.60;;;;;;;23.51;42.61;101437.53;5064170;28;20059;-64
2023/06/12 06:37:56;;;;;;;10.25;7.78;;;;;;;23.57;41.51;101429.72;5065362;28;20028;-65
2023/06/12 06:40:21;;;;;;;8.15;7.10;;;;;;;23.65;42.99;101426.09;5076259;28;20476;-64
2023/06/12 06:42:47;;;;;;;11.27;7.50;;;;;;;23.70;42.82;101425.16;5074500;28;20062;-64
2023/06/12 06:45:12;;;;;;;10.77;7.47;;;;;;;23.77;41.53;101432.00;5069354;28;20063;-65
2023/06/12 06:47:37;;;;;;;9.50;8.07;;;;;;;23.76;40.49;101430.31;5074657;28;20563;-65
2023/06/12 06:50:03;;;;;;;9.35;7.05;;;;;;;23.83;41.26;101431.84;5079515;28;20132;-65
2023/06/12 06:52:28;;;;;;;9.60;7.63;;;;;;;23.85;41.19;101436.00;5068703;28;20079;-64
2023/06/12 06:54:54;;;;;;;9.75;7.10;;;;;;;23.88;42.27;101435.38;5061832;28;20032;-64
2023/06/12 06:57:21;;;;;;;9.98;7.30;;;;;;;23.91;41.66;101428.22;5079036;28;20540;-65
2023/06/12 06:59:46;;;;;;;9.48;6.35;;;;;;;23.95;42.08;101430.06;5071743;28;20396;-65
2023/06/12 07:02:11;;;;;;;12.48;7.03;;;;;;;24.00;40.15;101431.88;5068960;28;20039;-65
2023/06/12 07:04:37;;;;;;;11.48;7.05;;;;;;;24.09;40.44;101429.94;5068782;28;20032;-68
2023/06/12 07:07:03;;;;;;;7.95;7.15;;;;;;;24.13;40.65;101425.25;5066601;28;20059;-66
2023/06/12 07:09:28;;;;;;;16.20;7.03;;;;;;;24.21;40.07;101427.28;5065651;28;20538;-64
2023/06/12 07:11:54;;;;;;;9.20;6.38;;;;;;;24.28;41.28;101423.09;5057862;28;20025;-64
2023/06/12 07:14:19;;;;;;;10.88;7.15;;;;;;;24.37;40.38;101421.13;5063773;28;20045;-64
2023/06/12 07:16:45;;;;;;;8.55;5.80;;;;;;;24.38;39.92;101426.47;5077891;28;20394;-64
2023/06/12 07:19:10;;;;;;;9.93;6.57;;;;;;;24.45;40.04;101418.31;5081058;28;20067;-63
2023/06/12 07:21:36;;;;;;;11.23;6.47;;;;;;;24.52;39.86;101417.78;5071435;28;20020;-63
2023/06/12 07:24:02;;;;;;;14.35;7.00;;;;;;;24.57;39.71;101414.81;5086412;28;20039;-63
2023/06/12 07:26:27;;;;;;;7.25;5.28;;;;;;;24.60;40.06;101422.66;5071045;28;20028;-63
2023/06/12 07:28:53;;;;;;;8.90;6.63;;;;;;;24.63;39.52;101409.78;5071657;28;20099;-64
2023/06/12 07:31:18;;;;;;;11.52;6.25;;;;;;;24.68;39.72;101418.97;5062809;28;20036;-64
2023/06/12 07:33:43;;;;;;;11.00;6.47;;;;;;;24.77;38.94;101398.25;5068668;28;20114;-65
2023/06/12 07:36:09;;;;;;;11.70;6.68;;;;;;;24.86;39.24;101414.09;5070565;28;20520;-64
2023/06/12 07:38:34;;;;;;;12.93;6.32;;;;;;;24.92;39.23;101409.91;5066913;28;20211;-65
2023/06/12 07:40:59;;;;;;;8.45;6.53;;;;;;;24.95;38.44;101406.38;5084745;28;20039;-65
2023/06/12 07:43:25;;;;;;;10.60;6.70;;;;;;;25.03;38.86;101413.22;5072065;28;20181;-65
2023/06/12 07:45:50;;;;;;;7.05;6.32;;;;;;;25.03;39.28;101401.84;5065027;28;20045;-66
2023/06/12 07:48:16;;;;;;;12.95;6.80;;;;;;;25.14;38.00;101402.38;5067841;28;20050;-66
2023/06/12 07:50:42;;;;;;;9.13;7.20;;;;;;;25.19;37.89;101405.00;5054277;28;20376;-65
2023/06/12 07:53:08;;;;;;;9.38;6.18;;;;;;;25.26;37.99;101410.19;5072313;28;20092;-64
2023/06/12 07:55:34;;;;;;;10.05;7.25;;;;;;;25.29;37.42;101396.13;5071551;28;20524;-65
2023/06/12 07:58:00;;;;;;;10.82;6.65;;;;;;;25.28;37.25;101399.31;5071149;28;20029;-63
2023/06/12 08:00:26;;;;;;;9.35;6.20;;;;;;;25.32;38.52;101401.16;5082620;28;20511;-63
2023/06/12 08:02:57;;;;;;;11.65;6.60;;;;;;;25.37;37.54;101405.81;5086310;28;20047;-60
2023/06/12 08:05:25;;;;;;;10.82;6.35;;;;;;;25.40;37.80;101407.97;5071839;28;20060;-59
2023/06/12 08:07:51;;;;;;;10.00;6.28;;;;;;;25.46;37.69;101404.56;5070644;28;20028;-65
2023/06/12 08:10:17;;;;;;;10.80;6.72;;;;;;;25.52;37.10;101402.41;5077883;28;20045;-65
2023/06/12 08:12:42;;;;;;;8.88;6.80;;;;;;;25.58;37.97;101397.34;5072753;28;20040;-64
2023/06/12 08:15:08;;;;;;;11.10;7.05;;;;;;;25.70;36.74;101404.00;5071983;28;20052;-65
2023/06/12 08:17:41;;;;;;;8.88;6.60;;;;;;;25.69;36.80;101401.47;5068652;28;20044;-64
2023/06/12 08:20:10;;;;;;;;;;;;;;;25.75;37.85;101399.28;5076046;28;20501;-64
2023/06/12 08:22:36;;;;;;;12.70;6.70;;;;;;;25.75;36.23;101402.13;5063018;28;19924;-64
2023/06/12 08:25:07;;;;;;;12.70;6.13;;;;;;;25.79;36.39;101403.13;5090578;28;20502;-64
2023/06/12 08:27:33;;;;;;;9.32;6.55;;;;;;;25.79;35.66;101406.81;5087761;28;20024;-64
2023/06/12 08:29:59;;;;;;;10.73;6.47;;;;;;;25.90;36.51;101396.72;5071356;28;20063;-63
2023/06/12 08:32:24;;;;;;;8.43;6.18;;;;;;;25.98;36.46;101400.69;5068921;28;20024;-65
2023/06/12 08:34:50;;;;;;;10.40;6.65;;;;;;;26.05;36.64;101395.25;5064890;28;20369;-64
2023/06/12 08:37:17;;;;;;;10.10;6.63;;;;;;;26.18;35.97;101396.19;5050886;28;20025;-64
2023/06/12 08:39:45;;;;;;;7.28;6.00;;;;;;;26.21;35.93;101404.00;5052627;28;20043;-64
2023/06/12 08:42:17;;;;;;;6.35;5.72;;;;;;;26.17;35.14;101392.50;5069773;28;20052;-65
2023/06/12 08:44:46;;;;;;;8.25;6.40;;;;;;;26.26;35.34;101398.13;5071079;28;20040;-65
2023/06/12 08:47:15;;;;;;;9.63;6.45;;;;;;;26.29;35.09;101393.72;5069687;28;20036;-64
2023/06/12 08:49:42;;;;;;;10.77;6.00;;;;;;;26.34;35.55;101394.38;5070011;28;20086;-64
2023/06/12 08:52:09;;;;;;;6.90;6.20;;;;;;;26.44;34.33;101396.78;5067093;28;20110;-64
2023/06/12 08:54:36;;;;;;;8.98;5.95;;;;;;;26.40;35.33;101392.13;5070225;28;20023;-64
2023/06/12 08:57:04;;;;;;;6.60;5.97;;;;;;;26.45;34.72;101391.97;5061033;28;20047;-64
2023/06/12 08:59:29;;;;;;;12.70;5.93;;;;;;;26.47;35.86;101391.63;5050390;28;20029;-64
2023/06/12 09:01:55;;;;;;;7.75;6.25;;;;;;;26.53;34.92;101384.56;5050626;28;20044;-64
2023/06/12 09:04:28;;;;;;;9.73;6.32;;;;;;;26.51;34.79;101390.56;5050130;28;20033;-63
2023/06/12 09:07:01;;;;;;;8.05;5.90;;;;;;;26.57;35.53;101386.34;5057509;28;20104;-64
2023/06/12 09:09:40;;;;;;;11.15;6.00;;;;;;;26.60;34.95;101385.63;5063409;28;20067;-64
2023/06/12 09:12:13;;;;;;;11.07;6.10;;;;;;;26.68;34.96;101387.59;5069175;28;20433;-63
2023/06/12 09:14:40;;;;;;;6.68;6.13;;;;;;;26.80;34.46;101378.25;5070767;28;20053;-64
2023/06/12 09:17:09;;;;;;;7.15;5.70;;;;;;;26.84;34.65;101369.81;5078593;28;20119;-65
2023/06/12 09:19:43;;;;;;;5.80;5.22;;;;;;;26.86;34.37;101370.31;5070018;28;20028;-63
2023/06/12 09:22:08;;;;;;;9.10;5.68;;;;;;;26.90;34.52;101372.09;5069173;28;20027;-64
2023/06/12 09:24:33;;;;;;;8.50;6.10;;;;;;;26.88;33.29;101370.78;5063181;28;20111;-64
2023/06/12 09:27:02;;;;;;;9.55;6.30;;;;;;;26.91;33.35;101372.91;5068326;28;20024;-66
2023/06/12 09:29:30;;;;;;;6.68;6.00;;;;;;;26.90;33.94;101374.13;5077750;28;20052;-65
2023/06/12 09:31:58;;;;;;;12.05;6.32;;;;;;;26.96;34.17;101363.31;5071268;28;20037;-65
2023/06/12 09:34:24;;;;;;;12.00;6.30;;;;;;;27.08;34.35;101377.63;5079580;28;20476;-64
2023/06/12 09:36:49;;;;;;;7.22;5.72;;;;;;;27.16;34.74;101373.84;5089638;28;20031;-65
2023/06/12 09:39:18;;;;;;;6.85;5.65;;;;;;;27.22;33.27;101377.31;5090356;28;20020;-66
2023/06/12 09:41:49;;;;;;;8.80;5.90;;;;;;;27.19;33.73;101367.44;5066320;28;20039;-65
2023/06/12 09:44:20;;;;;;;8.60;5.88;;;;;;;27.24;34.27;101369.25;5078535;28;20036;-65
2023/06/12 09:46:46;;;;;;;;;;;;;;;27.26;34.00;101364.00;5073574;28;20039;-65
2023/06/12 09:49:13;;;;;;;8.75;5.57;;;;;;;27.33;33.54;101367.09;5069314;28;19995;-65
2023/06/12 09:51:40;;;;;;;6.60;5.97;;;;;;;27.40;34.00;101370.19;5061203;28;20032;-66
2023/06/12 09:54:07;;;;;;;7.68;6.18;;;;;;;27.38;33.33;101366.88;5061373;28;21641;-66
2023/06/12 09:56:34;;;;;;;9.38;5.45;;;;;;;27.40;33.47;101371.03;5069439;28;20024;-65
2023/06/12 09:59:02;;;;;;;6.60;5.85;;;;;;;27.28;33.54;101373.03;5067128;28;20476;-65
2023/06/12 10:01:27;;;;;;;7.72;5.63;;;;;;;27.23;33.31;101376.09;5069036;28;20024;-65
2023/06/12 10:03:58;;;;;;;10.07;6.35;;;;;;;27.24;33.46;101370.06;5071776;28;20521;-65
2023/06/12 10:06:26;;;;;;;8.23;5.50;;;;;;;27.12;35.24;101370.06;5075813;28;20059;-65
2023/06/12 10:08:54;;;;;;;8.48;5.70;;;;;;;27.12;34.32;101367.19;5055640;28;20159;-62
2023/06/12 10:11:20;;;;;;;9.60;6.32;;;;;;;27.18;34.03;101365.78;5069262;28;20033;-62
2023/06/12 10:13:46;;;;;;;8.98;6.70;;;;;;;27.15;33.58;101367.31;5067480;28;20052;-61
2023/06/12 10:16:14;;;;;;;6.60;5.93;;;;;;;27.30;33.61;101364.97;5072472;28;20020;-61
2023/06/12 10:18:42;;;;;;;9.23;6.60;;;;;;;27.37;33.60;101368.88;5066976;28;20063;-61
2023/06/12 10:21:07;;;;;;;6.18;5.57;;;;;;;27.45;34.23;101364.25;5082099;28;20035;-64
2023/06/12 10:23:33;;;;;;;8.23;5.32;;;;;;;27.50;34.20;101352.59;5079112;28;20024;-64
2023/06/12 10:25:59;;;;;;;10.15;6.60;;;;;;;27.54;33.50;101353.56;5079653;28;20039;-64
2023/06/12 10:28:25;;;;;;;8.85;6.50;;;;;;;27.53;33.98;101354.75;5079382;28;20098;-64
2023/06/12 10:31:10;;;;;;;6.40;5.68;;;;;;;27.56;33.83;101356.91;5073495;28;20126;-66
2023/06/12 10:33:37;;;;;;;7.63;5.70;;;;;;;27.72;33.01;101359.03;5050091;28;20039;-65
2023/06/12 10:36:12;;;;;;;9.38;5.40;;;;;;;27.70;32.97;101355.69;5065533;28;20104;-66
2023/06/12 10:39:06;;;;;;;8.73;5.65;;;;;;;27.72;33.64;101348.44;5081781;28;20028;-64
2023/06/12 10:41:32;;;;;;;6.82;5.45;;;;;;;27.73;34.60;101352.13;5055116;28;20473;-66
2023/06/12 10:43:58;;;;;;;6.95;5.55;;;;;;;27.70;32.67;101347.97;5069255;28;20166;-66
2023/06/12 10:46:23;;;;;;;6.60;5.38;;;;;;;27.77;32.59;101350.25;5062648;28;20103;-66
2023/06/12 10:48:49;;;;;;;8.05;5.18;;;;;;;27.80;32.73;101341.00;5072427;28;20035;-65
2023/06/12 10:51:14;;;;;;;8.07;5.85;;;;;;;27.83;33.33;101335.41;5064836;28;20546;-65
2023/06/12 10:53:46;;;;;;;8.23;6.03;;;;;;;27.81;33.21;101342.66;5087666;28;20036;-65
2023/06/12 10:56:12;;;;;;;8.93;6.20;;;;;;;27.81;32.38;101329.22;5067235;28;20025;-66
2023/06/12 10:58:41;;;;;;;9.98;6.05;;;;;;;27.88;32.03;101334.31;5057742;28;20031;-66
2023/06/12 11:01:14;;;;;;;6.63;5.70;;;;;;;27.93;32.16;101325.50;5071979;28;20029;-65
2023/06/12 11:03:44;;;;;;;7.60;5.68;;;;;;;28.21;32.35;101324.72;5065028;28;20481;-65
2023/06/12 11:06:15;;;;;;;6.28;5.65;;;;;;;28.12;33.03;101328.53;5068799;28;20111;-66
2023/06/12 11:08:41;;;;;;;8.00;6.17;;;;;;;28.08;32.86;101333.31;5057782;28;20033;-65
2023/06/12 11:11:08;;;;;;;9.30;6.05;;;;;;;28.07;33.22;101340.22;5079872;28;20773;-66
2023/06/12 11:13:33;;;;;;;7.50;5.80;;;;;;;28.07;33.40;101323.09;5065574;28;20072;-65
2023/06/12 11:15:58;;;;;;;10.70;6.25;;;;;;;28.07;31.77;101328.81;5058093;28;20121;-66
2023/06/12 11:18:24;;;;;;;8.30;5.85;;;;;;;28.12;32.35;101322.84;5066617;28;20125;-66